sensor_id;sensor_type;location;lat;lon;timestamp;P1;durP1;ratioP1;P2;durP2;ratioP2
73678;SDS011;61978;52.742;16.962;2023-06-04T00:01:19;15.20;;;4.80;;
73678;SDS011;61978;52.742;16.962;2023-06-04T00:03:44;29.70;;;5.40;;
73678;SDS011;61978;52.742;16.962;2023-06-04T00:06:10;24.00;;;6.10;;
73678;SDS011;61978;52.742;16.962;2023-06-04T00:08:36;14.20;;;5.50;;
73678;SDS011;61978;52.742;16.962;2023-06-04T00:11:02;18.20;;;6.60;;
73678;SDS011;61978;52.742;16.962;2023-06-04T00:13:27;20.00;;;6.20;;
73678;SDS011;61978;52.742;16.962;2023-06-04T00:15:53;17.80;;;6.00;;
73678;SDS011;61978;52.742;16.962;2023-06-04T00:18:18;13.40;;;5.90;;
73678;SDS011;61978;52.742;16.962;2023-06-04T00:20:44;16.50;;;5.70;;
73678;SDS011;61978;52.742;16.962;2023-06-04T00:23:10;14.30;;;4.80;;
73678;SDS011;61978;52.742;16.962;2023-06-04T00:25:36;12.00;;;5.30;;
73678;SDS011;61978;52.742;16.962;2023-06-04T00:28:01;23.80;;;5.40;;
73678;SDS011;61978;52.742;16.962;2023-06-04T00:30:27;14.70;;;5.30;;
73678;SDS011;61978;52.742;16.962;2023-06-04T00:32:53;13.30;;;4.40;;
73678;SDS011;61978;52.742;16.962;2023-06-04T00:35:18;13.30;;;5.80;;
73678;SDS011;61978;52.742;16.962;2023-06-04T00:37:45;20.50;;;5.70;;
73678;SDS011;61978;52.742;16.962;2023-06-04T00:40:12;12.70;;;5.10;;
73678;SDS011;61978;52.742;16.962;2023-06-04T00:42:37;9.20;;;5.10;;
73678;SDS011;61978;52.742;16.962;2023-06-04T00:45:03;13.50;;;5.10;;
73678;SDS011;61978;52.742;16.962;2023-06-04T00:47:30;17.00;;;5.30;;
73678;SDS011;61978;52.742;16.962;2023-06-04T00:49:56;12.80;;;5.50;;
73678;SDS011;61978;52.742;16.962;2023-06-04T00:52:23;15.60;;;5.90;;
73678;SDS011;61978;52.742;16.962;2023-06-04T00:54:50;11.40;;;5.10;;
73678;SDS011;61978;52.742;16.962;2023-06-04T00:57:16;24.10;;;6.40;;
73678;SDS011;61978;52.742;16.962;2023-06-04T00:59:42;13.90;;;5.40;;
73678;SDS011;61978;52.742;16.962;2023-06-04T01:02:11;17.70;;;6.00;;
73678;SDS011;61978;52.742;16.962;2023-06-04T01:04:43;15.20;;;5.80;;
73678;SDS011;61978;52.742;16.962;2023-06-04T01:07:09;16.30;;;5.90;;
73678;SDS011;61978;52.742;16.962;2023-06-04T01:09:37;15.20;;;6.30;;
73678;SDS011;61978;52.742;16.962;2023-06-04T01:12:04;21.50;;;6.80;;
73678;SDS011;61978;52.742;16.962;2023-06-04T01:14:30;17.20;;;6.10;;
73678;SDS011;61978;52.742;16.962;2023-06-04T01:22:17;13.00;;;5.00;;
73678;SDS011;61978;52.742;16.962;2023-06-04T01:24:47;14.20;;;5.10;;
73678;SDS011;61978;52.742;16.962;2023-06-04T01:27:18;16.40;;;5.70;;
73678;SDS011;61978;52.742;16.962;2023-06-04T01:29:45;15.50;;;5.70;;
73678;SDS011;61978;52.742;16.962;2023-06-04T01:32:10;21.30;;;6.50;;
73678;SDS011;61978;52.742;16.962;2023-06-04T01:34:43;14.70;;;5.60;;
73678;SDS011;61978;52.742;16.962;2023-06-04T01:37:09;21.10;;;5.70;;
73678;SDS011;61978;52.742;16.962;2023-06-04T01:39:37;16.60;;;5.80;;
73678;SDS011;61978;52.742;16.962;2023-06-04T01:42:02;17.60;;;5.20;;
73678;SDS011;61978;52.742;16.962;2023-06-04T01:44:28;12.90;;;5.90;;
73678;SDS011;61978;52.742;16.962;2023-06-04T01:46:54;16.40;;;5.90;;
73678;SDS011;61978;52.742;16.962;2023-06-04T01:49:19;12.00;;;5.10;;
73678;SDS011;61978;52.742;16.962;2023-06-04T01:51:45;11.70;;;5.40;;
73678;SDS011;61978;52.742;16.962;2023-06-04T01:54:11;16.10;;;5.60;;
73678;SDS011;61978;52.742;16.962;2023-06-04T01:56:36;13.40;;;5.40;;
73678;SDS011;61978;52.742;16.962;2023-06-04T01:59:02;11.60;;;5.70;;
73678;SDS011;61978;52.742;16.962;2023-06-04T02:01:29;15.40;;;6.40;;
73678;SDS011;61978;52.742;16.962;2023-06-04T02:03:55;13.90;;;5.50;;
73678;SDS011;61978;52.742;16.962;2023-06-04T02:06:21;15.80;;;5.30;;
73678;SDS011;61978;52.742;16.962;2023-06-04T02:08:46;10.40;;;5.10;;
73678;SDS011;61978;52.742;16.962;2023-06-04T02:11:12;11.50;;;5.90;;
73678;SDS011;61978;52.742;16.962;2023-06-04T02:13:38;11.10;;;4.90;;
73678;SDS011;61978;52.742;16.962;2023-06-04T02:16:04;14.90;;;5.00;;
73678;SDS011;61978;52.742;16.962;2023-06-04T02:18:30;22.10;;;6.60;;
73678;SDS011;61978;52.742;16.962;2023-06-04T02:20:56;13.20;;;5.30;;
73678;SDS011;61978;52.742;16.962;2023-06-04T02:23:23;19.50;;;5.40;;
73678;SDS011;61978;52.742;16.962;2023-06-04T02:25:49;16.70;;;5.60;;
73678;SDS011;61978;52.742;16.962;2023-06-04T02:28:15;14.70;;;5.20;;
73678;SDS011;61978;52.742;16.962;2023-06-04T02:30:41;9.40;;;4.70;;
73678;SDS011;61978;52.742;16.962;2023-06-04T02:33:07;16.40;;;5.70;;
73678;SDS011;61978;52.742;16.962;2023-06-04T02:35:35;11.20;;;5.30;;
73678;SDS011;61978;52.742;16.962;2023-06-04T02:38:02;14.60;;;5.00;;
73678;SDS011;61978;52.742;16.962;2023-06-04T02:40:28;10.70;;;4.30;;
73678;SDS011;61978;52.742;16.962;2023-06-04T02:42:54;21.10;;;6.40;;
73678;SDS011;61978;52.742;16.962;2023-06-04T02:45:21;11.20;;;4.10;;
73678;SDS011;61978;52.742;16.962;2023-06-04T02:47:47;11.70;;;4.10;;
73678;SDS011;61978;52.742;16.962;2023-06-04T02:50:13;11.30;;;4.40;;
73678;SDS011;61978;52.742;16.962;2023-06-04T02:52:39;14.50;;;4.30;;
73678;SDS011;61978;52.742;16.962;2023-06-04T02:55:05;10.50;;;3.80;;
73678;SDS011;61978;52.742;16.962;2023-06-04T02:57:32;10.70;;;4.10;;
73678;SDS011;61978;52.742;16.962;2023-06-04T03:00:04;8.00;;;4.30;;
73678;SDS011;61978;52.742;16.962;2023-06-04T03:02:38;12.60;;;4.50;;
73678;SDS011;61978;52.742;16.962;2023-06-04T03:05:05;10.70;;;4.20;;
73678;SDS011;61978;52.742;16.962;2023-06-04T03:07:31;11.10;;;3.60;;
73678;SDS011;61978;52.742;16.962;2023-06-04T03:09:57;8.70;;;4.60;;
73678;SDS011;61978;52.742;16.962;2023-06-04T03:12:23;13.10;;;4.70;;
73678;SDS011;61978;52.742;16.962;2023-06-04T03:14:49;9.00;;;4.00;;
73678;SDS011;61978;52.742;16.962;2023-06-04T03:17:15;10.10;;;3.80;;
73678;SDS011;61978;52.742;16.962;2023-06-04T03:19:41;8.50;;;3.90;;
73678;SDS011;61978;52.742;16.962;2023-06-04T03:22:07;12.80;;;4.10;;
73678;SDS011;61978;52.742;16.962;2023-06-04T03:24:33;8.70;;;4.30;;
73678;SDS011;61978;52.742;16.962;2023-06-04T03:27:00;8.70;;;4.10;;
73678;SDS011;61978;52.742;16.962;2023-06-04T03:29:26;16.20;;;4.40;;
73678;SDS011;61978;52.742;16.962;2023-06-04T03:31:52;8.80;;;3.70;;
73678;SDS011;61978;52.742;16.962;2023-06-04T03:34:19;21.80;;;4.80;;
73678;SDS011;61978;52.742;16.962;2023-06-04T03:36:45;7.30;;;4.20;;
73678;SDS011;61978;52.742;16.962;2023-06-04T03:39:11;15.60;;;4.10;;
73678;SDS011;61978;52.742;16.962;2023-06-04T03:41:37;12.20;;;4.40;;
73678;SDS011;61978;52.742;16.962;2023-06-04T03:44:02;7.20;;;4.30;;
73678;SDS011;61978;52.742;16.962;2023-06-04T03:46:29;8.50;;;5.00;;
73678;SDS011;61978;52.742;16.962;2023-06-04T03:48:59;9.50;;;4.70;;
73678;SDS011;61978;52.742;16.962;2023-06-04T03:51:26;12.00;;;4.40;;
73678;SDS011;61978;52.742;16.962;2023-06-04T03:53:53;13.80;;;5.40;;
73678;SDS011;61978;52.742;16.962;2023-06-04T03:56:19;9.80;;;4.10;;
73678;SDS011;61978;52.742;16.962;2023-06-04T03:58:45;9.00;;;4.50;;
73678;SDS011;61978;52.742;16.962;2023-06-04T04:01:11;15.70;;;5.20;;
73678;SDS011;61978;52.742;16.962;2023-06-04T04:03:36;10.00;;;5.80;;
73678;SDS011;61978;52.742;16.962;2023-06-04T04:06:03;17.00;;;5.30;;
73678;SDS011;61978;52.742;16.962;2023-06-04T04:08:29;13.00;;;5.40;;
73678;SDS011;61978;52.742;16.962;2023-06-04T04:10:57;8.70;;;5.50;;
73678;SDS011;61978;52.742;16.962;2023-06-04T04:13:24;10.00;;;4.60;;
73678;SDS011;61978;52.742;16.962;2023-06-04T04:15:51;14.50;;;5.70;;
73678;SDS011;61978;52.742;16.962;2023-06-04T04:18:18;10.00;;;5.90;;
73678;SDS011;61978;52.742;16.962;2023-06-04T04:20:45;9.90;;;5.70;;
73678;SDS011;61978;52.742;16.962;2023-06-04T04:23:11;13.40;;;5.60;;
73678;SDS011;61978;52.742;16.962;2023-06-04T04:25:39;11.00;;;4.90;;
73678;SDS011;61978;52.742;16.962;2023-06-04T04:28:05;11.00;;;5.00;;
73678;SDS011;61978;52.742;16.962;2023-06-04T04:30:34;9.50;;;5.40;;
73678;SDS011;61978;52.742;16.962;2023-06-04T04:33:01;12.10;;;5.30;;
73678;SDS011;61978;52.742;16.962;2023-06-04T04:35:33;10.40;;;5.00;;
73678;SDS011;61978;52.742;16.962;2023-06-04T04:38:00;12.60;;;4.70;;
73678;SDS011;61978;52.742;16.962;2023-06-04T04:40:29;12.80;;;5.00;;
73678;SDS011;61978;52.742;16.962;2023-06-04T04:42:55;12.30;;;4.80;;
73678;SDS011;61978;52.742;16.962;2023-06-04T04:45:21;9.50;;;5.00;;
73678;SDS011;61978;52.742;16.962;2023-06-04T04:47:47;11.10;;;5.20;;
73678;SDS011;61978;52.742;16.962;2023-06-04T04:50:12;13.40;;;5.20;;
73678;SDS011;61978;52.742;16.962;2023-06-04T04:52:38;13.80;;;4.90;;
73678;SDS011;61978;52.742;16.962;2023-06-04T04:55:04;11.90;;;4.90;;
73678;SDS011;61978;52.742;16.962;2023-06-04T04:57:30;9.70;;;4.60;;
73678;SDS011;61978;52.742;16.962;2023-06-04T04:59:56;7.10;;;4.40;;
73678;SDS011;61978;52.742;16.962;2023-06-04T05:02:23;11.50;;;4.40;;
73678;SDS011;61978;52.742;16.962;2023-06-04T05:04:48;7.00;;;3.90;;
73678;SDS011;61978;52.742;16.962;2023-06-04T05:07:14;12.40;;;4.30;;
73678;SDS011;61978;52.742;16.962;2023-06-04T05:09:40;6.40;;;3.50;;
73678;SDS011;61978;52.742;16.962;2023-06-04T05:12:07;6.20;;;3.80;;
73678;SDS011;61978;52.742;16.962;2023-06-04T05:14:32;11.80;;;3.80;;
73678;SDS011;61978;52.742;16.962;2023-06-04T05:17:01;10.10;;;3.80;;
73678;SDS011;61978;52.742;16.962;2023-06-04T05:19:28;10.60;;;4.30;;
73678;SDS011;61978;52.742;16.962;2023-06-04T05:21:58;9.30;;;3.90;;
73678;SDS011;61978;52.742;16.962;2023-06-04T05:24:26;8.40;;;4.10;;
73678;SDS011;61978;52.742;16.962;2023-06-04T05:26:52;7.30;;;3.80;;
73678;SDS011;61978;52.742;16.962;2023-06-04T05:29:19;7.40;;;4.00;;
73678;SDS011;61978;52.742;16.962;2023-06-04T05:31:45;10.50;;;4.50;;
73678;SDS011;61978;52.742;16.962;2023-06-04T05:34:11;8.50;;;3.90;;
73678;SDS011;61978;52.742;16.962;2023-06-04T05:36:42;9.70;;;3.90;;
73678;SDS011;61978;52.742;16.962;2023-06-04T05:39:09;10.00;;;3.70;;
73678;SDS011;61978;52.742;16.962;2023-06-04T05:41:49;8.40;;;3.50;;
73678;SDS011;61978;52.742;16.962;2023-06-04T05:44:15;8.80;;;3.60;;
73678;SDS011;61978;52.742;16.962;2023-06-04T05:46:41;7.70;;;3.50;;
73678;SDS011;61978;52.742;16.962;2023-06-04T05:49:07;9.70;;;3.40;;
73678;SDS011;61978;52.742;16.962;2023-06-04T05:51:33;8.30;;;3.40;;
73678;SDS011;61978;52.742;16.962;2023-06-04T05:53:58;9.40;;;3.60;;
73678;SDS011;61978;52.742;16.962;2023-06-04T05:56:24;7.90;;;3.40;;
73678;SDS011;61978;52.742;16.962;2023-06-04T05:58:52;10.40;;;4.00;;
73678;SDS011;61978;52.742;16.962;2023-06-04T06:01:18;13.30;;;3.50;;
73678;SDS011;61978;52.742;16.962;2023-06-04T06:03:44;14.40;;;3.80;;
73678;SDS011;61978;52.742;16.962;2023-06-04T06:06:10;8.20;;;3.60;;
73678;SDS011;61978;52.742;16.962;2023-06-04T06:08:38;12.10;;;3.00;;
73678;SDS011;61978;52.742;16.962;2023-06-04T06:11:05;10.50;;;3.40;;
73678;SDS011;61978;52.742;16.962;2023-06-04T06:13:30;8.40;;;2.60;;
73678;SDS011;61978;52.742;16.962;2023-06-04T06:15:56;7.90;;;2.90;;
73678;SDS011;61978;52.742;16.962;2023-06-04T06:18:23;4.70;;;2.20;;
73678;SDS011;61978;52.742;16.962;2023-06-04T06:20:48;4.20;;;2.30;;
73678;SDS011;61978;52.742;16.962;2023-06-04T06:23:14;7.10;;;2.60;;
73678;SDS011;61978;52.742;16.962;2023-06-04T06:25:43;5.30;;;2.30;;
73678;SDS011;61978;52.742;16.962;2023-06-04T06:28:14;3.90;;;2.10;;
73678;SDS011;61978;52.742;16.962;2023-06-04T06:30:40;5.60;;;2.70;;
73678;SDS011;61978;52.742;16.962;2023-06-04T06:33:06;6.10;;;2.10;;
73678;SDS011;61978;52.742;16.962;2023-06-04T06:35:33;5.00;;;2.10;;
73678;SDS011;61978;52.742;16.962;2023-06-04T06:37:59;5.50;;;1.90;;
73678;SDS011;61978;52.742;16.962;2023-06-04T06:40:24;3.90;;;1.80;;
73678;SDS011;61978;52.742;16.962;2023-06-04T06:42:50;3.80;;;1.70;;
73678;SDS011;61978;52.742;16.962;2023-06-04T06:45:19;6.60;;;1.90;;
73678;SDS011;61978;52.742;16.962;2023-06-04T06:47:44;4.80;;;1.60;;
73678;SDS011;61978;52.742;16.962;2023-06-04T06:50:12;3.50;;;1.90;;
73678;SDS011;61978;52.742;16.962;2023-06-04T06:52:38;5.40;;;1.70;;
73678;SDS011;61978;52.742;16.962;2023-06-04T06:55:04;6.50;;;2.10;;
73678;SDS011;61978;52.742;16.962;2023-06-04T06:57:30;4.40;;;1.70;;
73678;SDS011;61978;52.742;16.962;2023-06-04T06:59:56;5.40;;;1.20;;
73678;SDS011;61978;52.742;16.962;2023-06-04T07:02:21;5.40;;;1.70;;
73678;SDS011;61978;52.742;16.962;2023-06-04T07:04:48;5.00;;;1.90;;
73678;SDS011;61978;52.742;16.962;2023-06-04T07:07:17;5.30;;;1.50;;
73678;SDS011;61978;52.742;16.962;2023-06-04T07:09:43;2.50;;;1.70;;
73678;SDS011;61978;52.742;16.962;2023-06-04T07:12:08;1.50;;;1.00;;
73678;SDS011;61978;52.742;16.962;2023-06-04T07:14:34;3.80;;;1.30;;
73678;SDS011;61978;52.742;16.962;2023-06-04T07:17:00;4.50;;;1.70;;
73678;SDS011;61978;52.742;16.962;2023-06-04T07:19:26;2.40;;;0.70;;
73678;SDS011;61978;52.742;16.962;2023-06-04T07:21:53;3.10;;;0.70;;
73678;SDS011;61978;52.742;16.962;2023-06-04T07:24:19;3.10;;;0.80;;
73678;SDS011;61978;52.742;16.962;2023-06-04T07:26:45;3.30;;;1.00;;
73678;SDS011;61978;52.742;16.962;2023-06-04T07:29:11;3.20;;;0.80;;
73678;SDS011;61978;52.742;16.962;2023-06-04T07:31:36;3.50;;;0.80;;
73678;SDS011;61978;52.742;16.962;2023-06-04T07:34:02;9.20;;;0.90;;
73678;SDS011;61978;52.742;16.962;2023-06-04T07:36:28;2.30;;;0.90;;
73678;SDS011;61978;52.742;16.962;2023-06-04T07:38:54;5.40;;;1.00;;
73678;SDS011;61978;52.742;16.962;2023-06-04T07:41:20;3.00;;;0.60;;
73678;SDS011;61978;52.742;16.962;2023-06-04T07:43:45;1.50;;;0.80;;
73678;SDS011;61978;52.742;16.962;2023-06-04T07:46:11;6.90;;;1.40;;
73678;SDS011;61978;52.742;16.962;2023-06-04T07:48:37;2.80;;;0.90;;
73678;SDS011;61978;52.742;16.962;2023-06-04T07:51:03;1.30;;;0.40;;
73678;SDS011;61978;52.742;16.962;2023-06-04T07:53:32;3.90;;;0.90;;
73678;SDS011;61978;52.742;16.962;2023-06-04T07:55:57;4.00;;;0.80;;
73678;SDS011;61978;52.742;16.962;2023-06-04T07:58:23;7.20;;;0.90;;
73678;SDS011;61978;52.742;16.962;2023-06-04T08:00:50;1.50;;;0.80;;
73678;SDS011;61978;52.742;16.962;2023-06-04T08:03:16;2.40;;;0.50;;
73678;SDS011;61978;52.742;16.962;2023-06-04T08:05:45;2.80;;;0.70;;
73678;SDS011;61978;52.742;16.962;2023-06-04T08:08:11;1.40;;;0.80;;
73678;SDS011;61978;52.742;16.962;2023-06-04T08:10:38;2.90;;;1.00;;
73678;SDS011;61978;52.742;16.962;2023-06-04T08:13:04;2.90;;;1.00;;
73678;SDS011;61978;52.742;16.962;2023-06-04T08:15:30;4.30;;;0.90;;
73678;SDS011;61978;52.742;16.962;2023-06-04T08:17:56;6.90;;;6.30;;
73678;SDS011;61978;52.742;16.962;2023-06-04T08:20:21;5.90;;;2.20;;
73678;SDS011;61978;52.742;16.962;2023-06-04T08:22:47;5.80;;;2.00;;
73678;SDS011;61978;52.742;16.962;2023-06-04T08:25:13;6.60;;;4.20;;
73678;SDS011;61978;52.742;16.962;2023-06-04T08:27:39;1.40;;;0.60;;
73678;SDS011;61978;52.742;16.962;2023-06-04T08:30:05;3.00;;;1.30;;
73678;SDS011;61978;52.742;16.962;2023-06-04T08:32:32;4.10;;;1.10;;
73678;SDS011;61978;52.742;16.962;2023-06-04T08:34:58;3.70;;;1.40;;
73678;SDS011;61978;52.742;16.962;2023-06-04T08:37:24;6.20;;;0.80;;
73678;SDS011;61978;52.742;16.962;2023-06-04T08:39:50;3.90;;;0.50;;
73678;SDS011;61978;52.742;16.962;2023-06-04T08:42:18;4.70;;;1.00;;
73678;SDS011;61978;52.742;16.962;2023-06-04T08:44:47;3.70;;;0.70;;
73678;SDS011;61978;52.742;16.962;2023-06-04T08:47:16;3.10;;;0.80;;
73678;SDS011;61978;52.742;16.962;2023-06-04T08:49:42;2.40;;;1.10;;
73678;SDS011;61978;52.742;16.962;2023-06-04T08:52:09;1.40;;;0.70;;
73678;SDS011;61978;52.742;16.962;2023-06-04T08:54:35;0.90;;;0.40;;
73678;SDS011;61978;52.742;16.962;2023-06-04T08:57:02;3.60;;;0.60;;
73678;SDS011;61978;52.742;16.962;2023-06-04T08:59:29;5.70;;;0.70;;
73678;SDS011;61978;52.742;16.962;2023-06-04T09:01:54;2.20;;;0.70;;
73678;SDS011;61978;52.742;16.962;2023-06-04T09:04:20;6.90;;;0.80;;
73678;SDS011;61978;52.742;16.962;2023-06-04T09:06:46;2.20;;;0.60;;
73678;SDS011;61978;52.742;16.962;2023-06-04T09:09:13;2.90;;;1.00;;
73678;SDS011;61978;52.742;16.962;2023-06-04T09:11:54;1.30;;;0.70;;
73678;SDS011;61978;52.742;16.962;2023-06-04T09:14:20;3.10;;;0.70;;
73678;SDS011;61978;52.742;16.962;2023-06-04T09:16:49;4.30;;;0.80;;
73678;SDS011;61978;52.742;16.962;2023-06-04T09:19:16;1.80;;;0.60;;
73678;SDS011;61978;52.742;16.962;2023-06-04T09:24:12;2.20;;;0.60;;
73678;SDS011;61978;52.742;16.962;2023-06-04T09:26:38;3.60;;;0.60;;
73678;SDS011;61978;52.742;16.962;2023-06-04T09:29:04;14.20;;;1.70;;
73678;SDS011;61978;52.742;16.962;2023-06-04T09:31:31;1.60;;;0.80;;
73678;SDS011;61978;52.742;16.962;2023-06-04T09:34:02;2.70;;;0.50;;
73678;SDS011;61978;52.742;16.962;2023-06-04T09:36:29;1.90;;;1.10;;
73678;SDS011;61978;52.742;16.962;2023-06-04T09:38:55;4.70;;;0.70;;
73678;SDS011;61978;52.742;16.962;2023-06-04T09:41:21;5.30;;;0.90;;
73678;SDS011;61978;52.742;16.962;2023-06-04T09:43:47;3.30;;;0.60;;
73678;SDS011;61978;52.742;16.962;2023-06-04T09:46:13;1.50;;;0.40;;
73678;SDS011;61978;52.742;16.962;2023-06-04T09:48:40;1.10;;;0.50;;
73678;SDS011;61978;52.742;16.962;2023-06-04T09:51:13;1.70;;;0.50;;
73678;SDS011;61978;52.742;16.962;2023-06-04T09:54:02;4.10;;;0.60;;
73678;SDS011;61978;52.742;16.962;2023-06-04T09:56:28;2.10;;;0.70;;
73678;SDS011;61978;52.742;16.962;2023-06-04T09:58:55;3.70;;;0.60;;
73678;SDS011;61978;52.742;16.962;2023-06-04T10:01:22;3.80;;;0.60;;
73678;SDS011;61978;52.742;16.962;2023-06-04T10:03:48;2.60;;;0.30;;
73678;SDS011;61978;52.742;16.962;2023-06-04T10:06:15;1.30;;;0.40;;
73678;SDS011;61978;52.742;16.962;2023-06-04T10:08:41;3.70;;;0.60;;
73678;SDS011;61978;52.742;16.962;2023-06-04T10:11:08;1.10;;;0.80;;
73678;SDS011;61978;52.742;16.962;2023-06-04T10:13:37;1.50;;;0.60;;
73678;SDS011;61978;52.742;16.962;2023-06-04T10:16:04;5.30;;;0.80;;
73678;SDS011;61978;52.742;16.962;2023-06-04T10:18:32;3.30;;;0.90;;
73678;SDS011;61978;52.742;16.962;2023-06-04T10:20:59;3.70;;;1.00;;
73678;SDS011;61978;52.742;16.962;2023-06-04T10:23:44;1.30;;;0.50;;
73678;SDS011;61978;52.742;16.962;2023-06-04T10:26:13;3.60;;;0.40;;
73678;SDS011;61978;52.742;16.962;2023-06-04T10:28:40;1.00;;;0.60;;
73678;SDS011;61978;52.742;16.962;2023-06-04T10:31:06;3.80;;;0.80;;
73678;SDS011;61978;52.742;16.962;2023-06-04T10:33:31;3.20;;;1.00;;
73678;SDS011;61978;52.742;16.962;2023-06-04T10:35:57;2.80;;;0.70;;
73678;SDS011;61978;52.742;16.962;2023-06-04T10:38:23;1.60;;;0.60;;
73678;SDS011;61978;52.742;16.962;2023-06-04T10:40:49;1.90;;;0.80;;
73678;SDS011;61978;52.742;16.962;2023-06-04T10:43:15;3.00;;;0.70;;
73678;SDS011;61978;52.742;16.962;2023-06-04T10:45:44;1.40;;;0.70;;
73678;SDS011;61978;52.742;16.962;2023-06-04T10:48:10;2.60;;;0.50;;
73678;SDS011;61978;52.742;16.962;2023-06-04T10:50:49;1.70;;;0.40;;
73678;SDS011;61978;52.742;16.962;2023-06-04T10:53:15;2.90;;;0.40;;
73678;SDS011;61978;52.742;16.962;2023-06-04T10:55:45;1.60;;;0.80;;
73678;SDS011;61978;52.742;16.962;2023-06-04T10:58:11;2.30;;;1.60;;
73678;SDS011;61978;52.742;16.962;2023-06-04T11:00:40;3.60;;;0.60;;
73678;SDS011;61978;52.742;16.962;2023-06-04T11:03:07;1.90;;;0.60;;
73678;SDS011;61978;52.742;16.962;2023-06-04T11:05:36;2.10;;;0.80;;
73678;SDS011;61978;52.742;16.962;2023-06-04T11:08:03;2.00;;;0.70;;
73678;SDS011;61978;52.742;16.962;2023-06-04T11:10:34;2.90;;;0.50;;
73678;SDS011;61978;52.742;16.962;2023-06-04T11:13:00;5.80;;;2.10;;
73678;SDS011;61978;52.742;16.962;2023-06-04T11:15:26;0.70;;;0.50;;
73678;SDS011;61978;52.742;16.962;2023-06-04T11:17:55;6.10;;;0.50;;
73678;SDS011;61978;52.742;16.962;2023-06-04T11:20:21;2.30;;;0.70;;
73678;SDS011;61978;52.742;16.962;2023-06-04T11:22:51;2.00;;;0.70;;
73678;SDS011;61978;52.742;16.962;2023-06-04T11:25:17;0.90;;;0.70;;
73678;SDS011;61978;52.742;16.962;2023-06-04T11:27:43;1.40;;;1.10;;
73678;SDS011;61978;52.742;16.962;2023-06-04T11:30:09;5.40;;;1.60;;
73678;SDS011;61978;52.742;16.962;2023-06-04T11:32:35;2.60;;;0.70;;
73678;SDS011;61978;52.742;16.962;2023-06-04T11:35:04;1.90;;;0.60;;
73678;SDS011;61978;52.742;16.962;2023-06-04T11:37:33;3.60;;;0.60;;
73678;SDS011;61978;52.742;16.962;2023-06-04T11:39:59;5.10;;;1.70;;
73678;SDS011;61978;52.742;16.962;2023-06-04T11:42:27;1.20;;;0.60;;
73678;SDS011;61978;52.742;16.962;2023-06-04T11:44:55;2.10;;;0.90;;
73678;SDS011;61978;52.742;16.962;2023-06-04T11:47:21;2.20;;;0.40;;
73678;SDS011;61978;52.742;16.962;2023-06-04T11:49:47;1.70;;;0.70;;
73678;SDS011;61978;52.742;16.962;2023-06-04T11:52:14;2.40;;;0.40;;
73678;SDS011;61978;52.742;16.962;2023-06-04T11:54:40;4.30;;;1.30;;
73678;SDS011;61978;52.742;16.962;2023-06-04T11:57:07;2.70;;;0.60;;
73678;SDS011;61978;52.742;16.962;2023-06-04T11:59:33;2.10;;;0.60;;
73678;SDS011;61978;52.742;16.962;2023-06-04T12:02:00;5.60;;;0.70;;
73678;SDS011;61978;52.742;16.962;2023-06-04T12:04:29;1.60;;;0.50;;
73678;SDS011;61978;52.742;16.962;2023-06-04T12:06:55;2.60;;;0.70;;
73678;SDS011;61978;52.742;16.962;2023-06-04T12:09:29;26.00;;;7.60;;
73678;SDS011;61978;52.742;16.962;2023-06-04T12:12:03;2.60;;;1.50;;
73678;SDS011;61978;52.742;16.962;2023-06-04T12:14:29;7.80;;;0.90;;
73678;SDS011;61978;52.742;16.962;2023-06-04T12:16:56;4.70;;;1.30;;
73678;SDS011;61978;52.742;16.962;2023-06-04T12:19:22;1.90;;;0.80;;
73678;SDS011;61978;52.742;16.962;2023-06-04T12:22:10;2.50;;;0.90;;
73678;SDS011;61978;52.742;16.962;2023-06-04T12:24:45;3.50;;;0.50;;
73678;SDS011;61978;52.742;16.962;2023-06-04T12:27:11;2.50;;;0.60;;
73678;SDS011;61978;52.742;16.962;2023-06-04T12:29:37;2.00;;;0.80;;
73678;SDS011;61978;52.742;16.962;2023-06-04T12:34:29;1.50;;;0.80;;
73678;SDS011;61978;52.742;16.962;2023-06-04T12:36:54;3.00;;;0.70;;
73678;SDS011;61978;52.742;16.962;2023-06-04T12:39:20;1.00;;;0.70;;
73678;SDS011;61978;52.742;16.962;2023-06-04T12:41:46;5.90;;;2.40;;
73678;SDS011;61978;52.742;16.962;2023-06-04T12:44:12;2.70;;;0.60;;
73678;SDS011;61978;52.742;16.962;2023-06-04T12:46:38;2.20;;;0.90;;
73678;SDS011;61978;52.742;16.962;2023-06-04T12:49:04;1.70;;;0.40;;
73678;SDS011;61978;52.742;16.962;2023-06-04T12:51:30;2.10;;;0.60;;
73678;SDS011;61978;52.742;16.962;2023-06-04T12:53:56;4.80;;;0.80;;
73678;SDS011;61978;52.742;16.962;2023-06-04T12:56:22;3.40;;;0.70;;
73678;SDS011;61978;52.742;16.962;2023-06-04T12:58:48;7.20;;;0.90;;
73678;SDS011;61978;52.742;16.962;2023-06-04T13:01:14;10.90;;;1.10;;
73678;SDS011;61978;52.742;16.962;2023-06-04T13:03:41;2.00;;;0.70;;
73678;SDS011;61978;52.742;16.962;2023-06-04T13:06:07;4.40;;;0.90;;
73678;SDS011;61978;52.742;16.962;2023-06-04T13:08:33;1.00;;;0.50;;
73678;SDS011;61978;52.742;16.962;2023-06-04T13:10:58;3.70;;;1.70;;
73678;SDS011;61978;52.742;16.962;2023-06-04T13:13:24;7.90;;;3.10;;
73678;SDS011;61978;52.742;16.962;2023-06-04T13:15:50;2.90;;;1.10;;
73678;SDS011;61978;52.742;16.962;2023-06-04T13:18:15;2.20;;;0.90;;
73678;SDS011;61978;52.742;16.962;2023-06-04T13:20:41;4.10;;;1.30;;
73678;SDS011;61978;52.742;16.962;2023-06-04T13:23:07;2.60;;;0.60;;
73678;SDS011;61978;52.742;16.962;2023-06-04T13:25:33;2.90;;;0.80;;
73678;SDS011;61978;52.742;16.962;2023-06-04T13:28:02;1.90;;;0.40;;
73678;SDS011;61978;52.742;16.962;2023-06-04T13:30:28;3.10;;;0.60;;
73678;SDS011;61978;52.742;16.962;2023-06-04T13:32:54;1.50;;;0.70;;
73678;SDS011;61978;52.742;16.962;2023-06-04T13:35:20;7.00;;;1.00;;
73678;SDS011;61978;52.742;16.962;2023-06-04T13:37:45;1.70;;;0.70;;
73678;SDS011;61978;52.742;16.962;2023-06-04T13:40:11;3.30;;;0.80;;
73678;SDS011;61978;52.742;16.962;2023-06-04T13:42:37;4.50;;;0.60;;
73678;SDS011;61978;52.742;16.962;2023-06-04T13:45:03;2.40;;;0.60;;
73678;SDS011;61978;52.742;16.962;2023-06-04T13:47:30;4.40;;;1.30;;
73678;SDS011;61978;52.742;16.962;2023-06-04T13:49:57;3.80;;;1.10;;
73678;SDS011;61978;52.742;16.962;2023-06-04T13:52:23;3.10;;;0.90;;
73678;SDS011;61978;52.742;16.962;2023-06-04T13:54:49;1.50;;;0.70;;
73678;SDS011;61978;52.742;16.962;2023-06-04T13:57:15;2.40;;;0.70;;
73678;SDS011;61978;52.742;16.962;2023-06-04T13:59:41;4.00;;;0.80;;
73678;SDS011;61978;52.742;16.962;2023-06-04T14:02:06;1.20;;;0.70;;
73678;SDS011;61978;52.742;16.962;2023-06-04T14:04:32;2.00;;;0.60;;
73678;SDS011;61978;52.742;16.962;2023-06-04T14:06:58;1.00;;;0.60;;
73678;SDS011;61978;52.742;16.962;2023-06-04T14:09:24;1.40;;;0.70;;
73678;SDS011;61978;52.742;16.962;2023-06-04T14:11:50;2.50;;;0.70;;
73678;SDS011;61978;52.742;16.962;2023-06-04T14:14:16;3.50;;;0.80;;
73678;SDS011;61978;52.742;16.962;2023-06-04T14:16:46;1.70;;;0.70;;
73678;SDS011;61978;52.742;16.962;2023-06-04T14:19:12;2.20;;;0.60;;
73678;SDS011;61978;52.742;16.962;2023-06-04T14:21:38;3.40;;;1.00;;
73678;SDS011;61978;52.742;16.962;2023-06-04T14:24:04;1.00;;;0.70;;
73678;SDS011;61978;52.742;16.962;2023-06-04T14:26:30;1.70;;;1.10;;
73678;SDS011;61978;52.742;16.962;2023-06-04T14:28:56;2.10;;;0.60;;
73678;SDS011;61978;52.742;16.962;2023-06-04T14:31:22;3.20;;;0.70;;
73678;SDS011;61978;52.742;16.962;2023-06-04T14:33:49;47.20;;;24.50;;
73678;SDS011;61978;52.742;16.962;2023-06-04T14:36:15;2.70;;;0.70;;
73678;SDS011;61978;52.742;16.962;2023-06-04T14:38:41;21.20;;;12.10;;